createdAt,value
2023-03-20T00:00:53.399Z,2.72
2023-03-20T00:03:56.637Z,2.80
2023-03-20T00:06:59.274Z,3.30
2023-03-20T00:10:02.923Z,2.67
2023-03-20T00:13:06.977Z,3.40
2023-03-20T00:16:11.617Z,2.92
2023-03-20T00:19:30.277Z,2.97
2023-03-20T00:22:35.781Z,7.43
2023-03-20T00:25:40.390Z,3.63
2023-03-20T00:28:44.731Z,2.90
2023-03-20T00:31:47.780Z,2.03
2023-03-20T00:34:50.637Z,2.08
2023-03-20T00:37:53.519Z,3.10
2023-03-20T00:40:56.270Z,2.00
2023-03-20T00:44:01.340Z,3.25
2023-03-20T00:47:13.879Z,9.95
2023-03-20T00:50:22.520Z,2.45
2023-03-20T00:53:25.032Z,2.75
2023-03-20T00:56:36.776Z,2.60
2023-03-20T00:59:42.672Z,2.45
2023-03-20T01:02:46.140Z,2.40
2023-03-20T01:05:50.081Z,2.38
2023-03-20T01:08:52.849Z,2.65
2023-03-20T01:11:55.438Z,2.63
2023-03-20T01:14:58.894Z,2.80
2023-03-20T01:18:01.870Z,2.60
2023-03-20T01:21:04.547Z,2.78
2023-03-20T01:24:07.436Z,2.80
2023-03-20T01:27:20.054Z,2.30
2023-03-20T01:30:25.669Z,2.42
2023-03-20T01:33:29.614Z,3.15
2023-03-20T01:36:32.154Z,2.95
2023-03-20T01:39:36.478Z,2.97
2023-03-20T01:42:39.918Z,3.15
2023-03-20T01:45:53.570Z,3.78
2023-03-20T01:49:08.159Z,4.03
2023-03-20T01:52:11.685Z,3.53
2023-03-20T01:55:14.434Z,4.10
2023-03-20T01:58:23.154Z,3.35
2023-03-20T02:01:28.294Z,2.70
2023-03-20T02:04:37.734Z,3.20
2023-03-20T02:07:49.997Z,3.13
2023-03-20T02:10:55.533Z,3.08
2023-03-20T02:14:03.021Z,3.03
2023-03-20T02:17:13.620Z,2.63
2023-03-20T02:20:30.933Z,2.72
2023-03-20T02:24:05.812Z,2.88
2023-03-20T02:27:35.491Z,3.00
2023-03-20T02:30:41.082Z,2.78
2023-03-20T02:33:55.979Z,3.35
2023-03-20T02:37:23.381Z,3.67
2023-03-20T02:40:25.891Z,4.75
2023-03-20T02:43:46.831Z,8.10
2023-03-20T02:47:12.886Z,3.22
2023-03-20T02:50:50.561Z,3.40
2023-03-20T02:53:58.479Z,9.15
2023-03-20T02:57:08.765Z,2.25
2023-03-20T03:00:36.801Z,3.40
2023-03-20T03:03:52.276Z,2.58
2023-03-20T03:06:56.504Z,4.68
2023-03-20T03:10:18.431Z,4.20
2023-03-20T03:13:29.350Z,17.85
2023-03-20T03:16:35.617Z,3.00
2023-03-20T03:19:40.165Z,4.72
2023-03-20T03:22:42.752Z,4.43
2023-03-20T03:25:47.006Z,2.90
2023-03-20T03:28:53.918Z,3.78
2023-03-20T03:31:56.766Z,4.22
2023-03-20T03:35:00.986Z,5.32
2023-03-20T03:38:18.881Z,5.57
2023-03-20T03:41:50.032Z,5.00
2023-03-20T03:45:00.583Z,5.72
2023-03-20T03:48:15.690Z,5.45
2023-03-20T03:51:21.682Z,5.45
2023-03-20T03:54:37.343Z,5.57
2023-03-20T03:58:03.914Z,4.80
2023-03-20T04:01:07.939Z,4.82
2023-03-20T04:04:13.036Z,6.03
2023-03-20T04:07:16.159Z,5.47
2023-03-20T04:10:19.972Z,5.75
2023-03-20T04:13:22.685Z,4.90
2023-03-20T04:16:25.961Z,4.80
2023-03-20T04:19:29.061Z,18.80
2023-03-20T04:22:34.921Z,31.85
2023-03-20T04:25:42.999Z,27.77
2023-03-20T04:28:45.864Z,18.63
2023-03-20T04:32:07.423Z,10.63
2023-03-20T04:35:35.176Z,11.15
2023-03-20T04:38:47.526Z,5.47
2023-03-20T04:41:50.038Z,7.15
2023-03-20T04:44:52.861Z,10.70
2023-03-20T04:47:55.562Z,6.15
2023-03-20T04:50:59.344Z,12.65
2023-03-20T04:54:14.692Z,16.17
2023-03-20T04:57:18.645Z,6.80
2023-03-20T05:00:21.790Z,9.45
2023-03-20T05:03:24.723Z,5.72
2023-03-20T05:06:28.587Z,6.03
2023-03-20T05:09:31.781Z,5.63
2023-03-20T05:12:37.962Z,4.72
2023-03-20T05:16:02.227Z,5.80
2023-03-20T05:19:19.999Z,6.22
2023-03-20T05:22:49.395Z,6.45
2023-03-20T05:26:09.524Z,6.78
2023-03-20T05:29:30.435Z,7.57
2023-03-20T05:32:53.167Z,6.93
2023-03-20T05:36:06.392Z,6.90
2023-03-20T05:39:24.154Z,6.82
2023-03-20T05:42:53.215Z,6.40
2023-03-20T05:46:13.634Z,6.28
2023-03-20T05:49:28.285Z,6.95
2023-03-20T05:53:06.446Z,19.73
2023-03-20T05:56:24.831Z,14.70
2023-03-20T05:59:45.990Z,6.97
2023-03-20T06:03:02.401Z,7.80
2023-03-20T06:06:24.840Z,3.85
2023-03-20T06:09:30.117Z,3.65
2023-03-20T06:12:34.174Z,3.20
2023-03-20T06:15:37.423Z,4.53
2023-03-20T06:18:49.430Z,4.03
2023-03-20T06:21:52.217Z,8.38
2023-03-20T06:24:57.541Z,5.18
2023-03-20T06:28:06.572Z,5.25
2023-03-20T06:31:10.237Z,4.10
2023-03-20T06:34:13.322Z,5.03
2023-03-20T06:37:20.963Z,3.67
2023-03-20T06:40:25.755Z,4.82
2023-03-20T06:43:28.526Z,3.92
2023-03-20T06:46:31.450Z,4.50
2023-03-20T06:49:34.171Z,5.55
2023-03-20T06:52:36.695Z,4.32
2023-03-20T06:56:04.403Z,5.43
2023-03-20T06:59:07.700Z,4.68
2023-03-20T07:02:11.788Z,4.55
2023-03-20T07:05:16.223Z,4.43
2023-03-20T07:08:19.314Z,3.70
2023-03-20T07:11:22.650Z,3.88
2023-03-20T07:14:28.984Z,5.15
2023-03-20T07:17:40.243Z,4.80
2023-03-20T07:20:43.630Z,4.80
2023-03-20T07:23:46.779Z,5.05
2023-03-20T07:26:50.198Z,5.57
2023-03-20T07:29:53.679Z,5.32
2023-03-20T07:32:56.439Z,5.45
2023-03-20T07:36:04.313Z,4.43
2023-03-20T07:39:07.223Z,5.95
2023-03-20T07:42:11.833Z,6.03
2023-03-20T07:45:21.221Z,6.60
2023-03-20T07:48:23.839Z,5.40
2023-03-20T07:51:26.946Z,6.15
2023-03-20T07:54:29.620Z,5.55
2023-03-20T07:57:33.840Z,4.70
2023-03-20T08:00:36.596Z,4.80
2023-03-20T08:03:40.025Z,5.57
2023-03-20T08:06:44.029Z,5.45
2023-03-20T08:09:46.807Z,5.50
2023-03-20T08:12:49.490Z,6.13
2023-03-20T08:15:52.141Z,5.90
2023-03-20T08:19:01.484Z,6.50
2023-03-20T08:22:07.590Z,7.80
2023-03-20T08:25:10.740Z,7.13
2023-03-20T08:28:13.388Z,8.27
2023-03-20T08:31:17.946Z,6.88
2023-03-20T08:34:22.911Z,7.30
2023-03-20T08:37:27.100Z,6.72
2023-03-20T08:40:30.329Z,7.47
2023-03-20T08:43:32.976Z,7.93
2023-03-20T08:46:35.636Z,7.68
2023-03-20T08:49:38.243Z,8.10
2023-03-20T08:52:44.465Z,8.68
2023-03-20T08:55:54.270Z,7.13
2023-03-20T08:58:57.248Z,7.43
2023-03-20T09:01:59.910Z,7.18
2023-03-20T09:05:02.656Z,7.18
2023-03-20T09:08:05.769Z,8.38
2023-03-20T09:11:08.446Z,7.22
2023-03-20T09:14:11.149Z,9.25
2023-03-20T09:17:13.854Z,8.65
2023-03-20T09:20:16.602Z,9.15
2023-03-20T09:23:19.652Z,7.95
2023-03-20T09:26:22.856Z,8.90
2023-03-20T09:29:25.596Z,9.73
2023-03-20T09:32:28.132Z,8.68
2023-03-20T09:35:31.369Z,8.98
2023-03-20T09:38:34.074Z,10.02
2023-03-20T09:41:52.966Z,8.80
2023-03-20T09:45:07.941Z,8.88
2023-03-20T09:48:28.977Z,9.02
2023-03-20T09:51:36.847Z,7.43
2023-03-20T09:54:54.201Z,7.47
2023-03-20T09:57:59.494Z,8.30
2023-03-20T10:01:04.476Z,8.38
2023-03-20T10:04:10.086Z,7.82
2023-03-20T10:07:14.202Z,7.75
2023-03-20T10:10:20.776Z,7.65
2023-03-20T10:13:38.604Z,8.00
2023-03-20T10:16:59.108Z,6.93
2023-03-20T10:20:14.365Z,7.05
2023-03-20T10:23:24.823Z,7.72
2023-03-20T10:26:28.012Z,5.95
2023-03-20T10:30:05.965Z,6.13
2023-03-20T10:33:14.651Z,6.30
2023-03-20T10:36:54.561Z,6.32
2023-03-20T10:40:00.117Z,5.90
2023-03-20T10:43:25.041Z,5.75
2023-03-20T10:46:30.864Z,6.45
2023-03-20T10:49:57.148Z,6.05
2023-03-20T10:53:00.793Z,7.20
2023-03-20T10:56:09.505Z,7.65
2023-03-20T10:59:29.205Z,6.65
2023-03-20T11:02:35.388Z,6.57
2023-03-20T11:05:42.276Z,6.45
2023-03-20T11:08:48.738Z,6.15
2023-03-20T11:11:53.818Z,6.88
2023-03-20T11:15:01.108Z,6.40
2023-03-20T11:18:11.168Z,6.55
2023-03-20T11:21:23.294Z,5.65
2023-03-20T11:24:41.260Z,5.95
2023-03-20T11:27:43.903Z,4.75
2023-03-20T11:31:03.603Z,4.85
2023-03-20T11:34:16.151Z,4.93
2023-03-20T11:37:29.110Z,5.40
2023-03-20T11:40:32.873Z,5.45
2023-03-20T11:43:38.609Z,5.15
2023-03-20T11:46:41.187Z,5.35
2023-03-20T11:49:50.658Z,5.05
2023-03-20T11:52:53.919Z,2.90
2023-03-20T11:56:23.235Z,4.07
2023-03-20T11:59:34.860Z,3.60
2023-03-20T12:02:38.375Z,4.63
2023-03-20T12:05:41.082Z,5.07
2023-03-20T12:08:49.324Z,5.10
2023-03-20T12:12:01.412Z,5.07
2023-03-20T12:15:13.434Z,5.97
2023-03-20T12:18:40.064Z,5.72
2023-03-20T12:21:48.450Z,5.18
2023-03-20T12:25:09.990Z,5.43
2023-03-20T12:28:21.861Z,3.95
2023-03-20T12:31:26.825Z,3.95
2023-03-20T12:34:36.089Z,4.28
2023-03-20T12:37:38.780Z,3.90
2023-03-20T12:40:44.070Z,3.88
2023-03-20T12:44:23.384Z,3.08
2023-03-20T12:47:44.491Z,3.83
2023-03-20T12:51:17.105Z,4.05
2023-03-20T12:54:37.328Z,3.35
2023-03-20T12:58:11.016Z,3.20
2023-03-20T13:01:38.196Z,3.10
2023-03-20T13:04:46.889Z,4.07
2023-03-20T13:08:02.975Z,3.22
2023-03-20T13:11:14.852Z,4.10
2023-03-20T13:14:30.867Z,6.07
2023-03-20T13:18:10.659Z,6.43
2023-03-20T13:21:17.370Z,5.22
2023-03-20T13:24:28.559Z,3.17
2023-03-20T13:27:41.950Z,2.90
2023-03-20T13:31:16.022Z,4.45
2023-03-20T13:34:54.100Z,2.88
2023-03-20T13:38:03.705Z,3.58
2023-03-20T13:41:10.201Z,2.80
2023-03-20T13:44:15.515Z,2.40
2023-03-20T13:47:25.184Z,3.28
2023-03-20T13:51:05.687Z,3.25
2023-03-20T13:54:20.622Z,2.85
2023-03-20T13:57:36.490Z,3.28
2023-03-20T14:00:47.611Z,3.47
2023-03-20T14:03:51.025Z,3.28
2023-03-20T14:06:55.651Z,3.22
2023-03-20T14:09:58.394Z,3.35
2023-03-20T14:13:03.652Z,3.20
2023-03-20T14:16:10.894Z,3.65
2023-03-20T14:19:22.131Z,3.40
2023-03-20T14:22:30.115Z,3.83
2023-03-20T14:25:40.648Z,3.15
2023-03-20T14:29:01.043Z,3.42
2023-03-20T14:32:12.904Z,4.28
2023-03-20T14:35:18.400Z,4.65
2023-03-20T14:38:21.057Z,4.60
2023-03-20T14:41:50.086Z,5.53
2023-03-20T14:45:08.017Z,5.43
2023-03-20T14:48:37.902Z,5.80
2023-03-20T14:51:45.060Z,5.82
2023-03-20T14:54:54.961Z,6.95
2023-03-20T14:58:06.477Z,5.78
2023-03-20T15:01:19.590Z,6.32
2023-03-20T15:04:36.357Z,6.38
2023-03-20T15:07:39.857Z,5.97
2023-03-20T15:10:52.507Z,5.95
2023-03-20T15:13:56.207Z,6.50
2023-03-20T15:17:00.584Z,7.15
2023-03-20T15:20:07.198Z,6.75
2023-03-20T15:23:09.994Z,6.85
2023-03-20T15:26:18.023Z,6.82
2023-03-20T15:29:20.789Z,7.38
2023-03-20T15:32:24.149Z,7.03
2023-03-20T15:35:27.793Z,7.68
2023-03-20T15:38:33.551Z,7.65
2023-03-20T15:41:38.489Z,8.48
2023-03-20T15:44:43.210Z,8.45
2023-03-20T15:47:45.986Z,8.20
2023-03-20T15:51:00.712Z,8.13
2023-03-20T15:54:08.114Z,8.55
2023-03-20T15:57:19.897Z,8.05
2023-03-20T16:00:45.934Z,6.90
2023-03-20T16:03:49.386Z,8.07
2023-03-20T16:07:00.633Z,8.48
2023-03-20T16:10:03.525Z,8.70
2023-03-20T16:13:08.013Z,8.70
2023-03-20T16:16:20.424Z,8.52
2023-03-20T16:19:25.129Z,9.32
2023-03-20T16:22:31.123Z,10.32
2023-03-20T16:25:35.653Z,11.17
2023-03-20T16:28:39.054Z,29.92
2023-03-20T16:31:54.637Z,43.35
2023-03-20T16:34:58.691Z,56.60
2023-03-20T16:38:05.910Z,28.08
2023-03-20T16:41:16.686Z,12.13
2023-03-20T16:44:29.312Z,9.13
2023-03-20T16:47:36.690Z,9.07
2023-03-20T16:50:40.939Z,9.48
2023-03-20T16:53:49.210Z,8.98
2023-03-20T16:56:53.760Z,9.20
2023-03-20T17:00:02.177Z,11.05
2023-03-20T17:03:26.910Z,11.25
2023-03-20T17:06:37.961Z,9.05
2023-03-20T17:09:55.158Z,8.70
2023-03-20T17:12:57.871Z,8.52
2023-03-20T17:16:00.763Z,8.70
2023-03-20T17:19:16.449Z,11.10
2023-03-20T17:22:22.507Z,7.57
2023-03-20T17:25:25.358Z,8.13
2023-03-20T17:28:34.669Z,6.53
2023-03-20T17:31:37.485Z,6.60
2023-03-20T17:34:40.817Z,6.45
2023-03-20T17:37:44.137Z,6.60
2023-03-20T17:40:50.410Z,5.97
2023-03-20T17:43:54.281Z,7.78
2023-03-20T17:46:59.339Z,6.32
2023-03-20T17:50:02.309Z,5.97
2023-03-20T17:53:05.154Z,5.97
2023-03-20T17:56:15.313Z,7.05
2023-03-20T17:59:18.184Z,6.90
2023-03-20T18:02:21.218Z,6.13
2023-03-20T18:05:24.455Z,7.18
2023-03-20T18:08:27.163Z,6.40
2023-03-20T18:11:30.298Z,7.45
2023-03-20T18:14:33.371Z,5.85
2023-03-20T18:17:36.386Z,5.40
2023-03-20T18:20:41.641Z,5.80
2023-03-20T18:23:45.394Z,5.95
2023-03-20T18:26:48.775Z,6.20
2023-03-20T18:29:52.663Z,5.50
2023-03-20T18:32:55.739Z,5.80
2023-03-20T18:36:00.802Z,5.18
2023-03-20T18:39:05.203Z,5.40
2023-03-20T18:42:08.449Z,5.50
2023-03-20T18:45:12.105Z,5.95
2023-03-20T18:48:15.546Z,6.22
2023-03-20T18:51:19.126Z,6.15
2023-03-20T18:54:21.858Z,6.55
2023-03-20T18:57:24.594Z,5.55
2023-03-20T19:00:43.194Z,6.85
2023-03-20T19:03:47.131Z,5.82
2023-03-20T19:06:50.039Z,6.15
2023-03-20T19:09:52.799Z,6.22
2023-03-20T19:12:56.294Z,6.22
2023-03-20T19:15:59.307Z,7.13
2023-03-20T19:19:04.474Z,7.30
2023-03-20T19:22:13.012Z,7.03
2023-03-20T19:25:18.633Z,8.13
2023-03-20T19:28:40.653Z,8.95
2023-03-20T19:31:44.061Z,9.85
2023-03-20T19:35:35.298Z,7.65
2023-03-20T19:38:14.953Z,9.45
2023-03-20T19:41:19.933Z,8.32
2023-03-20T19:44:22.798Z,8.70
2023-03-20T19:47:25.681Z,8.75
2023-03-20T19:50:34.246Z,9.57
2023-03-20T19:53:37.000Z,8.85
2023-03-20T19:56:40.476Z,10.43
2023-03-20T19:59:44.030Z,11.35
2023-03-20T20:02:47.895Z,10.48
2023-03-20T20:05:53.165Z,11.60
2023-03-20T20:08:56.050Z,11.38
2023-03-20T20:11:58.966Z,10.50
2023-03-20T20:15:01.802Z,10.18
2023-03-20T20:18:04.649Z,8.57
2023-03-20T20:24:30.332Z,11.57
2023-03-20T20:27:33.674Z,10.13
2023-03-20T20:30:37.247Z,10.50
2023-03-20T20:33:41.123Z,8.93
2023-03-20T20:40:10.922Z,9.82
2023-03-20T20:43:39.042Z,9.55
2023-03-20T20:46:36.702Z,8.98
2023-03-20T20:49:40.140Z,9.13
2023-03-20T20:52:43.538Z,9.88
2023-03-20T20:55:46.081Z,10.38
2023-03-20T20:58:48.693Z,10.70
2023-03-20T21:01:52.264Z,10.95
2023-03-20T21:04:55.569Z,11.07
2023-03-20T21:07:58.400Z,12.13
2023-03-20T21:11:04.362Z,12.52
2023-03-20T21:14:07.051Z,12.48
2023-03-20T21:17:10.757Z,12.20
2023-03-20T21:20:14.001Z,11.45
2023-03-20T21:23:16.927Z,12.43
2023-03-20T21:26:19.916Z,10.50
2023-03-20T21:29:22.629Z,10.60
2023-03-20T21:32:25.522Z,11.68
2023-03-20T21:35:28.962Z,10.32
2023-03-20T21:41:55.891Z,11.05
2023-03-20T21:45:53.275Z,11.98
2023-03-20T21:49:03.864Z,10.70
2023-03-20T22:02:09.308Z,9.85
2023-03-20T22:09:30.856Z,10.05
2023-03-20T22:23:00.386Z,8.85
2023-03-20T22:26:18.271Z,7.57
2023-03-20T22:36:36.055Z,16.70
2023-03-20T22:40:15.223Z,15.75
2023-03-20T22:46:09.961Z,16.73
2023-03-20T22:49:15.067Z,8.75
2023-03-20T22:52:31.765Z,10.73
2023-03-20T22:55:37.856Z,8.20
2023-03-20T22:58:40.781Z,4.35
2023-03-20T23:01:43.330Z,4.35
2023-03-20T23:04:48.233Z,5.03
2023-03-20T23:07:50.921Z,17.98
2023-03-20T23:10:53.526Z,4.45
2023-03-20T23:13:56.531Z,4.97
2023-03-20T23:16:59.664Z,3.83
2023-03-20T23:20:11.326Z,2.78
2023-03-20T23:23:15.650Z,3.70
2023-03-20T23:26:22.483Z,3.42
2023-03-20T23:29:25.450Z,4.05
2023-03-20T23:32:28.000Z,11.77
2023-03-20T23:35:30.511Z,4.00
2023-03-20T23:38:33.157Z,9.68
2023-03-20T23:42:02.429Z,7.13
2023-03-20T23:45:04.454Z,3.58
2023-03-20T23:48:13.313Z,3.20
2023-03-20T23:51:15.895Z,6.13
2023-03-20T23:54:18.566Z,7.15
2023-03-20T23:57:21.182Z,2.95
